F/V L'atout II — FGG5090 — position and weather

sailwx.info

Track history (hours):
 
Tides and Currents Weather Stations Pressure Air Temp Water Temp Dewpoint Dewpoint Depression Visibility Wind Speed Wind Dir Waves Ship Positions

F/V L'atout II

Last reported at 2017-Sep-22 02:00 UTC. Time now 2017-Sep-24 17:33 UTC.
Position N 47°41' W 003°28'.

Length 10 m.

Type: Fishing. MMSI: 227021840.

Date/timePositionNaut miles runAvg speedWind from/ knotsBaromVisibWave heightAir tempDewpointWater temp
2017-Sep-22 02:00N 47°41' W 003°28'3 6.9
2017-Sep-22 01:30N 47°41' W 003°23'2 4.6
2017-Sep-22 00:58N 47°44' W 003°22'0 0.0
2017-Sep-20 10:51N 47°44' W 003°22'0 0.4
2017-Sep-20 10:30N 47°44' W 003°22'2 4.0
2017-Sep-20 10:01N 47°42' W 003°23'2 4.0
2017-Sep-20 09:30N 47°40' W 003°24'1 1.4
2017-Sep-20 09:00N 47°40' W 003°25'1 2.3
2017-Sep-20 08:29N 47°41' W 003°26'1 2.7
2017-Sep-20 08:00N 47°41' W 003°24'0 0.5
2017-Sep-20 07:30N 47°41' W 003°24'0 0.3
2017-Sep-20 07:00N 47°41' W 003°24'0 0.8
2017-Sep-20 06:31N 47°41' W 003°24'1 1.4
2017-Sep-20 06:01N 47°41' W 003°24'0 0.3
2017-Sep-20 05:29N 47°40' W 003°25'0 0.1
2017-Sep-20 05:00N 47°40' W 003°25'1 1.2
2017-Sep-20 04:28N 47°40' W 003°24'0 0.7
2017-Sep-20 03:57N 47°40' W 003°23'0 0.7
2017-Sep-20 03:30N 47°40' W 003°23'0 0.5
2017-Sep-20 02:59N 47°40' W 003°23'1 1.6
2017-Sep-20 02:30N 47°41' W 003°24'2 3.0
2017-Sep-20 02:00N 47°41' W 003°26'3 5.0
2017-Sep-20 01:29N 47°41' W 003°22'3 5.8
2017-Sep-20 01:00N 47°44' W 003°22'0 0.0
2017-Sep-19 11:27N 47°44' W 003°22'0 0.1
2017-Sep-19 11:00N 47°44' W 003°22'4 7.8
2017-Sep-19 10:30N 47°40' W 003°24'0 0.2
2017-Sep-19 10:00N 47°40' W 003°24'1 1.3
2017-Sep-19 09:30N 47°40' W 003°23'0 0.1
2017-Sep-19 09:00N 47°40' W 003°23'1 1.5
2017-Sep-19 08:31N 47°41' W 003°23'0 0.9
2017-Sep-19 08:00N 47°41' W 003°24'0 0.9
2017-Sep-19 07:30N 47°41' W 003°24'0 0.5
2017-Sep-19 07:00N 47°40' W 003°24'0 1.0
2017-Sep-19 06:30N 47°41' W 003°25'1 1.8
2017-Sep-19 06:00N 47°41' W 003°26'0 0.4
2017-Sep-19 05:30N 47°41' W 003°26'2 3.9
2017-Sep-19 04:58N 47°41' W 003°29'1 1.4
2017-Sep-19 04:30N 47°41' W 003°28'1 2.5
2017-Sep-19 04:01N 47°41' W 003°26'0 0.1
2017-Sep-19 03:30N 47°41' W 003°26'0 0.5
2017-Sep-19 03:01N 47°41' W 003°26'1 1.1
2017-Sep-19 02:30N 47°41' W 003°25'1 2.1
2017-Sep-19 02:00N 47°41' W 003°24'1 1.9
2017-Sep-19 01:30N 47°40' W 003°22'3 6.5
2017-Sep-19 01:00N 47°44' W 003°22'0 0.0
2017-Sep-18 11:48N 47°44' W 003°22'0 0.1
2017-Sep-18 11:30N 47°44' W 003°22'4 7.0
2017-Sep-18 11:00N 47°41' W 003°25'1 2.3
2017-Sep-18 10:30N 47°41' W 003°27'0 0.8
2017-Sep-18 10:00N 47°41' W 003°26'1 1.6
2017-Sep-18 09:29N 47°41' W 003°27'1 1.5
2017-Sep-18 09:00N 47°41' W 003°26'1 2.5
2017-Sep-18 08:30N 47°40' W 003°25'1 1.9
2017-Sep-18 08:00N 47°40' W 003°23'2 3.5
2017-Sep-18 07:30N 47°41' W 003°25'0 0.2
2017-Sep-18 07:00N 47°41' W 003°25'1 2.3
2017-Sep-18 06:30N 47°41' W 003°27'1 1.1
2017-Sep-18 06:00N 47°41' W 003°26'1 2.3
2017-Sep-18 05:30N 47°41' W 003°28'1 1.3
2017-Sep-18 05:00N 47°41' W 003°29'0 0.7
2017-Sep-18 04:19N 47°41' W 003°28'0 0.6
2017-Sep-18 03:58N 47°41' W 003°28'0 0.6
2017-Sep-18 03:29N 47°41' W 003°27'1 1.8
2017-Sep-18 03:00N 47°41' W 003°26'1 1.1
2017-Sep-18 02:30N 47°41' W 003°27'1 1.8
2017-Sep-18 02:00N 47°41' W 003°26'1 2.9
2017-Sep-18 01:31N 47°41' W 003°24'3 5.4
2017-Sep-18 01:00N 47°44' W 003°22'  
2017-Sep-13 08:56N 47°44' W 003°22'0 0.0
2017-Sep-13 08:29N 47°44' W 003°22'  
Track history (hours):
 
Tides and Currents Weather Stations Pressure Air Temp Water Temp Dewpoint Dewpoint Depression Visibility Wind Speed Wind Dir Waves Ship Positions

F/V L'atout II

Last reported at 2017-Sep-22 02:00 UTC. Time now 2017-Sep-24 17:33 UTC.
Position N 47°41' W 003°28'.

Length 10 m.

Type: Fishing. MMSI: 227021840.

Date/timePositionNaut miles runAvg speedWind from/ knotsBaromVisibWave heightAir tempDewpointWater temp
2017-Sep-22 02:00N 47°41' W 003°28'3 6.9
2017-Sep-22 01:30N 47°41' W 003°23'2 4.6
2017-Sep-22 00:58N 47°44' W 003°22'0 0.0
2017-Sep-20 10:51N 47°44' W 003°22'0 0.4
2017-Sep-20 10:30N 47°44' W 003°22'2 4.0
2017-Sep-20 10:01N 47°42' W 003°23'2 4.0
2017-Sep-20 09:30N 47°40' W 003°24'1 1.4
2017-Sep-20 09:00N 47°40' W 003°25'1 2.3
2017-Sep-20 08:29N 47°41' W 003°26'1 2.7
2017-Sep-20 08:00N 47°41' W 003°24'0 0.5
2017-Sep-20 07:30N 47°41' W 003°24'0 0.3
2017-Sep-20 07:00N 47°41' W 003°24'0 0.8
2017-Sep-20 06:31N 47°41' W 003°24'1 1.4
2017-Sep-20 06:01N 47°41' W 003°24'0 0.3
2017-Sep-20 05:29N 47°40' W 003°25'0 0.1
2017-Sep-20 05:00N 47°40' W 003°25'1 1.2
2017-Sep-20 04:28N 47°40' W 003°24'0 0.7
2017-Sep-20 03:57N 47°40' W 003°23'0 0.7
2017-Sep-20 03:30N 47°40' W 003°23'0 0.5
2017-Sep-20 02:59N 47°40' W 003°23'1 1.6
2017-Sep-20 02:30N 47°41' W 003°24'2 3.0
2017-Sep-20 02:00N 47°41' W 003°26'3 5.0
2017-Sep-20 01:29N 47°41' W 003°22'3 5.8
2017-Sep-20 01:00N 47°44' W 003°22'0 0.0
2017-Sep-19 11:27N 47°44' W 003°22'0 0.1
2017-Sep-19 11:00N 47°44' W 003°22'4 7.8
2017-Sep-19 10:30N 47°40' W 003°24'0 0.2
2017-Sep-19 10:00N 47°40' W 003°24'1 1.3
2017-Sep-19 09:30N 47°40' W 003°23'0 0.1
2017-Sep-19 09:00N 47°40' W 003°23'1 1.5
2017-Sep-19 08:31N 47°41' W 003°23'0 0.9
2017-Sep-19 08:00N 47°41' W 003°24'0 0.9
2017-Sep-19 07:30N 47°41' W 003°24'0 0.5
2017-Sep-19 07:00N 47°40' W 003°24'0 1.0
2017-Sep-19 06:30N 47°41' W 003°25'1 1.8
2017-Sep-19 06:00N 47°41' W 003°26'0 0.4
2017-Sep-19 05:30N 47°41' W 003°26'2 3.9
2017-Sep-19 04:58N 47°41' W 003°29'1 1.4
2017-Sep-19 04:30N 47°41' W 003°28'1 2.5
2017-Sep-19 04:01N 47°41' W 003°26'0 0.1
2017-Sep-19 03:30N 47°41' W 003°26'0 0.5
2017-Sep-19 03:01N 47°41' W 003°26'1 1.1
2017-Sep-19 02:30N 47°41' W 003°25'1 2.1
2017-Sep-19 02:00N 47°41' W 003°24'1 1.9
2017-Sep-19 01:30N 47°40' W 003°22'3 6.5
2017-Sep-19 01:00N 47°44' W 003°22'0 0.0
2017-Sep-18 11:48N 47°44' W 003°22'0 0.1
2017-Sep-18 11:30N 47°44' W 003°22'4 7.0
2017-Sep-18 11:00N 47°41' W 003°25'1 2.3
2017-Sep-18 10:30N 47°41' W 003°27'0 0.8
2017-Sep-18 10:00N 47°41' W 003°26'1 1.6
2017-Sep-18 09:29N 47°41' W 003°27'1 1.5
2017-Sep-18 09:00N 47°41' W 003°26'1 2.5
2017-Sep-18 08:30N 47°40' W 003°25'1 1.9
2017-Sep-18 08:00N 47°40' W 003°23'2 3.5
2017-Sep-18 07:30N 47°41' W 003°25'0 0.2
2017-Sep-18 07:00N 47°41' W 003°25'1 2.3
2017-Sep-18 06:30N 47°41' W 003°27'1 1.1
2017-Sep-18 06:00N 47°41' W 003°26'1 2.3
2017-Sep-18 05:30N 47°41' W 003°28'1 1.3
2017-Sep-18 05:00N 47°41' W 003°29'0 0.7
2017-Sep-18 04:19N 47°41' W 003°28'0 0.6
2017-Sep-18 03:58N 47°41' W 003°28'0 0.6
2017-Sep-18 03:29N 47°41' W 003°27'1 1.8
2017-Sep-18 03:00N 47°41' W 003°26'1 1.1
2017-Sep-18 02:30N 47°41' W 003°27'1 1.8
2017-Sep-18 02:00N 47°41' W 003°26'1 2.9
2017-Sep-18 01:31N 47°41' W 003°24'3 5.4
2017-Sep-18 01:00N 47°44' W 003°22'  
2017-Sep-13 08:56N 47°44' W 003°22'0 0.0
2017-Sep-13 08:29N 47°44' W 003°22'  

Dump ship's entire track history